createdAt,value
2022-10-11T00:00:43.878Z,9.30
2022-10-11T00:03:11.836Z,8.40
2022-10-11T00:05:39.768Z,10.23
2022-10-11T00:08:07.931Z,9.37
2022-10-11T00:10:37.276Z,8.47
2022-10-11T00:13:06.044Z,8.40
2022-10-11T00:15:34.404Z,8.80
2022-10-11T00:18:05.367Z,8.70
2022-10-11T00:20:33.655Z,8.87
2022-10-11T00:23:01.597Z,9.13
2022-10-11T00:25:29.628Z,9.40
2022-10-11T00:27:58.938Z,9.77
2022-10-11T00:30:26.870Z,8.53
2022-10-11T00:32:54.787Z,9.20
2022-10-11T00:35:22.744Z,8.60
2022-10-11T00:37:50.702Z,9.20
2022-10-11T00:40:20.964Z,9.03
2022-10-11T00:42:48.986Z,9.20
2022-10-11T00:46:02.909Z,8.50
2022-10-11T00:48:37.422Z,8.23
2022-10-11T00:51:09.755Z,8.63
2022-10-11T00:53:37.923Z,8.07
2022-10-11T00:56:10.888Z,8.17
2022-10-11T00:58:40.019Z,8.07
2022-10-11T01:01:09.574Z,7.93
2022-10-11T01:03:40.083Z,8.20
2022-10-11T01:06:10.182Z,7.60
2022-10-11T01:08:39.666Z,7.17
2022-10-11T01:11:07.973Z,7.83
2022-10-11T01:13:47.373Z,7.37
2022-10-11T01:16:22.468Z,6.97
2022-10-11T01:19:01.636Z,7.43
2022-10-11T01:21:37.695Z,6.87
2022-10-11T01:24:33.946Z,7.30
2022-10-11T01:27:31.636Z,7.07
2022-10-11T01:30:08.682Z,7.30
2022-10-11T01:32:44.741Z,7.17
2022-10-11T01:35:21.720Z,7.00
2022-10-11T01:37:56.677Z,7.27
2022-10-11T01:40:29.555Z,6.83
2022-10-11T01:42:58.755Z,7.00
2022-10-11T01:45:26.945Z,7.30
2022-10-11T01:48:06.028Z,7.53
2022-10-11T01:50:39.456Z,6.50
2022-10-11T01:53:32.204Z,6.70
2022-10-11T01:56:10.703Z,6.23
2022-10-11T01:58:53.128Z,7.23
2022-10-11T02:01:28.531Z,6.60
2022-10-11T02:04:05.937Z,6.40
2022-10-11T02:06:36.762Z,6.50
2022-10-11T02:09:14.573Z,6.20
2022-10-11T02:11:43.277Z,6.50
2022-10-11T02:14:14.199Z,6.50
2022-10-11T02:16:47.230Z,6.10
2022-10-11T02:19:20.103Z,6.23
2022-10-11T02:21:53.587Z,6.47
2022-10-11T02:24:27.245Z,6.50
2022-10-11T02:26:57.930Z,6.13
2022-10-11T02:29:29.764Z,7.13
2022-10-11T02:32:00.643Z,6.40
2022-10-11T02:34:34.593Z,6.67
2022-10-11T02:37:09.870Z,6.20
2022-10-11T02:39:44.002Z,6.10
2022-10-11T02:42:18.456Z,6.57
2022-10-11T02:44:59.624Z,6.13
2022-10-11T02:47:28.012Z,6.03
2022-10-11T02:49:57.535Z,6.10
2022-10-11T02:52:25.737Z,6.33
2022-10-11T02:54:53.687Z,6.93
2022-10-11T02:57:21.620Z,6.40
2022-10-11T02:59:49.564Z,6.63
2022-10-11T03:02:17.489Z,6.57
2022-10-11T03:04:45.582Z,6.40
2022-10-11T03:07:15.043Z,6.33
2022-10-11T03:09:43.138Z,6.30
2022-10-11T03:12:11.128Z,6.17
2022-10-11T03:14:39.064Z,6.17
2022-10-11T03:17:31.113Z,7.20
2022-10-11T03:19:55.467Z,6.63
2022-10-11T03:22:24.844Z,6.07
2022-10-11T03:24:52.783Z,6.60
2022-10-11T03:27:20.865Z,6.20
2022-10-11T03:29:48.798Z,6.50
2022-10-11T03:32:16.766Z,6.23
2022-10-11T03:34:44.715Z,6.57
2022-10-11T03:37:12.643Z,6.30
2022-10-11T03:39:41.963Z,5.90
2022-10-11T03:42:09.888Z,6.27
2022-10-11T03:44:38.763Z,6.50
2022-10-11T03:47:06.888Z,6.00
2022-10-11T03:49:37.652Z,5.87
2022-10-11T03:52:07.903Z,6.10
2022-10-11T03:54:35.888Z,6.40
2022-10-11T03:57:05.472Z,6.30
2022-10-11T03:59:33.451Z,6.20
2022-10-11T04:02:01.563Z,6.33
2022-10-11T04:04:29.649Z,6.67
2022-10-11T04:06:57.598Z,6.10
2022-10-11T04:09:25.527Z,5.53
2022-10-11T04:11:53.447Z,6.33
2022-10-11T04:14:22.778Z,6.20
2022-10-11T04:16:50.745Z,5.90
2022-10-11T04:19:18.691Z,6.50
2022-10-11T04:21:46.659Z,6.27
2022-10-11T04:24:14.621Z,6.27
2022-10-11T04:26:42.551Z,6.60
2022-10-11T04:29:10.592Z,6.93
2022-10-11T04:31:39.892Z,6.93
2022-10-11T04:34:07.904Z,6.07
2022-10-11T04:36:35.839Z,5.90
2022-10-11T04:39:03.790Z,6.23
2022-10-11T04:41:31.766Z,6.23
2022-10-11T04:43:59.759Z,6.50
2022-10-11T04:46:28.235Z,6.50
2022-10-11T04:48:57.936Z,6.60
2022-10-11T04:51:26.177Z,6.57
2022-10-11T04:53:54.114Z,6.77
2022-10-11T04:56:22.064Z,7.03
2022-10-11T04:58:54.006Z,7.07
2022-10-11T05:01:22.525Z,6.97
2022-10-11T05:03:50.901Z,7.50
2022-10-11T05:06:20.547Z,7.23
2022-10-11T05:08:48.534Z,7.10
2022-10-11T05:11:17.660Z,7.10
2022-10-11T05:13:46.587Z,7.23
2022-10-11T05:16:15.639Z,7.40
2022-10-11T05:18:43.939Z,6.93
2022-10-11T05:21:18.479Z,7.23
2022-10-11T05:23:49.012Z,6.90
2022-10-11T05:26:17.798Z,7.90
2022-10-11T05:28:45.999Z,7.30
2022-10-11T05:31:14.143Z,6.83
2022-10-11T05:33:42.418Z,7.17
2022-10-11T05:36:10.810Z,7.47
2022-10-11T05:38:39.555Z,8.00
2022-10-11T05:41:10.147Z,7.87
2022-10-11T05:43:38.111Z,7.53
2022-10-11T05:46:06.817Z,8.00
2022-10-11T05:48:35.166Z,7.97
2022-10-11T05:51:05.167Z,8.63
2022-10-11T05:53:33.482Z,9.50
2022-10-11T05:56:02.068Z,10.57
2022-10-11T05:58:31.587Z,11.03
2022-10-11T06:00:59.600Z,10.87
2022-10-11T06:03:28.129Z,9.97
2022-10-11T06:06:03.206Z,9.70
2022-10-11T06:08:32.039Z,9.37
2022-10-11T06:10:59.976Z,9.50
2022-10-11T06:13:27.949Z,9.17
2022-10-11T06:15:57.262Z,9.87
2022-10-11T06:18:25.184Z,9.83
2022-10-11T06:20:53.150Z,9.60
2022-10-11T06:23:21.124Z,8.55
2022-10-11T06:25:57.508Z,8.97
2022-10-11T06:28:26.618Z,8.93
2022-10-11T06:30:54.608Z,9.53
2022-10-11T06:33:24.296Z,9.60
2022-10-11T06:35:58.381Z,9.45
2022-10-11T06:38:26.784Z,9.75
2022-10-11T06:40:55.319Z,11.13
2022-10-11T06:43:23.853Z,12.47
2022-10-11T06:45:51.782Z,10.23
2022-10-11T06:48:19.775Z,10.63
2022-10-11T06:50:59.523Z,10.87
2022-10-11T06:53:28.758Z,11.37
2022-10-11T06:56:03.493Z,12.83
2022-10-11T06:58:31.886Z,12.27
2022-10-11T07:01:03.772Z,14.20
2022-10-11T07:03:31.811Z,13.90
2022-10-11T07:06:03.238Z,14.63
2022-10-11T07:08:31.722Z,15.53
2022-10-11T07:11:04.952Z,14.43
2022-10-11T07:13:33.034Z,13.93
2022-10-11T07:16:02.430Z,13.45
2022-10-11T07:18:30.946Z,12.57
2022-10-11T07:20:59.147Z,11.18
2022-10-11T07:23:28.626Z,9.70
2022-10-11T07:25:56.590Z,10.23
2022-10-11T07:28:25.010Z,10.98
2022-10-11T07:30:53.057Z,11.73
2022-10-11T07:33:21.186Z,12.15
2022-10-11T07:35:50.189Z,11.15
2022-10-11T07:38:18.391Z,11.52
2022-10-11T07:40:47.925Z,12.98
2022-10-11T07:43:16.069Z,12.18
2022-10-11T07:45:48.361Z,12.02
2022-10-11T07:48:47.441Z,12.02
2022-10-11T07:51:17.476Z,11.75
2022-10-11T07:53:47.551Z,12.48
2022-10-11T07:56:19.702Z,12.15
2022-10-11T07:58:52.198Z,12.95
2022-10-11T08:01:21.289Z,11.93
2022-10-11T08:03:50.195Z,11.48
2022-10-11T08:06:20.091Z,12.23
2022-10-11T08:08:48.798Z,11.70
2022-10-11T08:11:25.656Z,12.50
2022-10-11T08:13:53.835Z,11.95
2022-10-11T08:16:22.217Z,11.30
2022-10-11T08:18:50.560Z,11.98
2022-10-11T08:21:19.565Z,11.68
2022-10-11T08:23:47.576Z,12.00
2022-10-11T08:26:15.979Z,11.90
2022-10-11T08:28:45.439Z,13.70
2022-10-11T08:31:15.554Z,12.32
2022-10-11T08:33:44.408Z,13.45
2022-10-11T08:36:13.486Z,13.85
2022-10-11T08:38:42.030Z,13.05
2022-10-11T08:41:27.593Z,17.73
2022-10-11T08:44:11.866Z,15.73
2022-10-11T08:46:43.287Z,17.48
2022-10-11T08:49:14.572Z,15.52
2022-10-11T08:51:46.794Z,14.77
2022-10-11T08:54:21.709Z,13.07
2022-10-11T08:56:50.801Z,13.95
2022-10-11T08:59:31.682Z,14.30
2022-10-11T09:02:05.752Z,15.55
2022-10-11T09:04:33.925Z,16.02
2022-10-11T09:07:08.495Z,15.88
2022-10-11T09:09:57.294Z,14.45
2022-10-11T09:12:40.655Z,13.90
2022-10-11T09:15:28.281Z,13.52
2022-10-11T09:18:21.495Z,12.82
2022-10-11T09:21:00.222Z,12.32
2022-10-11T09:23:46.307Z,14.02
2022-10-11T09:26:20.907Z,14.38
2022-10-11T09:29:01.455Z,15.85
2022-10-11T09:31:31.549Z,15.18
2022-10-11T09:34:07.096Z,15.15
2022-10-11T09:36:42.563Z,15.85
2022-10-11T09:39:25.357Z,14.93
2022-10-11T09:41:57.826Z,16.80
2022-10-11T09:44:27.984Z,15.48
2022-10-11T09:46:58.491Z,15.82
2022-10-11T09:49:32.174Z,15.05
2022-10-11T09:52:03.500Z,14.80
2022-10-11T09:54:42.798Z,14.18
2022-10-11T09:57:24.062Z,14.38
2022-10-11T10:00:05.354Z,15.13
2022-10-11T10:02:42.384Z,15.45
2022-10-11T10:05:20.059Z,12.88
2022-10-11T10:08:23.032Z,11.73
2022-10-11T10:11:00.970Z,12.60
2022-10-11T10:13:35.488Z,14.93
2022-10-11T10:16:04.306Z,14.43
2022-10-11T10:18:38.476Z,14.45
2022-10-11T10:21:11.961Z,14.13
2022-10-11T10:23:40.253Z,13.02
2022-10-11T10:26:17.300Z,11.57
2022-10-11T10:29:00.928Z,12.02
2022-10-11T10:31:54.961Z,11.25
2022-10-11T10:34:29.520Z,11.23
2022-10-11T10:37:01.474Z,11.23
2022-10-11T10:39:35.057Z,11.65
2022-10-11T10:42:06.114Z,11.38
2022-10-11T10:44:34.151Z,10.77
2022-10-11T10:47:10.921Z,11.02
2022-10-11T10:49:54.119Z,11.63
2022-10-11T10:52:53.226Z,11.40
2022-10-11T10:55:28.788Z,18.15
2022-10-11T10:58:09.596Z,10.88
2022-10-11T11:00:44.330Z,9.27
2022-10-11T11:03:18.834Z,8.98
2022-10-11T11:05:56.241Z,9.45
2022-10-11T11:08:39.714Z,9.00
2022-10-11T11:11:20.244Z,9.18
2022-10-11T11:13:56.569Z,8.98
2022-10-11T11:16:33.377Z,10.50
2022-10-11T11:19:14.537Z,8.77
2022-10-11T11:21:54.280Z,8.73
2022-10-11T11:24:36.107Z,9.00
2022-10-11T11:27:11.425Z,8.63
2022-10-11T11:29:53.108Z,9.52
2022-10-11T11:32:34.043Z,8.30
2022-10-11T11:35:04.558Z,8.82
2022-10-11T11:37:36.306Z,7.72
2022-10-11T11:40:08.863Z,7.90
2022-10-11T11:42:42.822Z,8.50
2022-10-11T11:45:19.738Z,8.52
2022-10-11T11:47:55.391Z,7.97
2022-10-11T11:50:25.193Z,8.77
2022-10-11T11:52:57.355Z,8.13
2022-10-11T11:55:32.521Z,8.25
2022-10-11T11:58:12.622Z,8.15
2022-10-11T12:00:47.733Z,8.13
2022-10-11T12:03:21.380Z,8.40
2022-10-11T12:06:21.889Z,8.38
2022-10-11T12:09:01.873Z,7.72
2022-10-11T12:11:39.581Z,6.95
2022-10-11T12:14:27.386Z,7.00
2022-10-11T12:17:13.643Z,6.78
2022-10-11T12:19:44.251Z,6.38
2022-10-11T12:22:36.673Z,6.78
2022-10-11T12:25:33.215Z,6.53
2022-10-11T12:28:22.231Z,6.63
2022-10-11T12:30:54.513Z,6.65
2022-10-11T12:33:24.675Z,7.07
2022-10-11T12:36:08.195Z,7.50
2022-10-11T12:38:39.755Z,7.03
2022-10-11T12:41:50.365Z,7.05
2022-10-11T12:44:24.081Z,6.50
2022-10-11T12:47:21.094Z,6.80
2022-10-11T12:49:58.549Z,7.85
2022-10-11T12:52:35.040Z,6.03
2022-10-11T12:55:35.609Z,6.70
2022-10-11T12:58:28.322Z,6.05
2022-10-11T13:01:31.742Z,5.43
2022-10-11T13:04:04.147Z,5.60
2022-10-11T13:06:36.360Z,5.30
2022-10-11T13:09:08.112Z,5.40
2022-10-11T13:11:39.868Z,4.95
2022-10-11T13:14:11.765Z,5.75
2022-10-11T13:16:56.791Z,5.20
2022-10-11T13:19:25.522Z,4.97
2022-10-11T13:21:56.478Z,5.38
2022-10-11T13:24:25.503Z,5.10
2022-10-11T13:26:56.337Z,5.28
2022-10-11T13:29:32.473Z,5.75
2022-10-11T13:32:01.790Z,4.80
2022-10-11T13:34:34.415Z,5.07
2022-10-11T13:37:03.493Z,5.22
2022-10-11T13:39:35.936Z,5.28
2022-10-11T13:42:07.177Z,5.95
2022-10-11T13:44:38.593Z,5.50
2022-10-11T13:47:06.992Z,5.68
2022-10-11T13:49:39.883Z,5.45
2022-10-11T13:52:22.049Z,5.05
2022-10-11T13:54:58.555Z,5.60
2022-10-11T13:57:36.698Z,5.90
2022-10-11T14:00:26.041Z,4.95
2022-10-11T14:02:57.803Z,4.95
2022-10-11T14:05:30.509Z,5.20
2022-10-11T14:08:01.827Z,5.43
2022-10-11T14:10:30.636Z,5.18
2022-10-11T14:13:04.859Z,5.60
2022-10-11T14:15:35.949Z,5.30
2022-10-11T14:18:33.676Z,4.82
2022-10-11T14:21:34.642Z,5.53
2022-10-11T14:24:05.053Z,4.55
2022-10-11T14:26:35.873Z,5.40
2022-10-11T14:29:07.871Z,4.97
2022-10-11T14:31:41.453Z,5.40
2022-10-11T14:34:14.774Z,4.95
2022-10-11T14:36:42.733Z,5.25
2022-10-11T14:39:14.654Z,5.00
2022-10-11T14:41:42.663Z,5.25
2022-10-11T14:44:10.675Z,5.78
2022-10-11T14:46:41.335Z,4.70
2022-10-11T14:49:14.684Z,4.72
2022-10-11T14:51:42.931Z,5.85
2022-10-11T14:54:11.381Z,5.13
2022-10-11T14:56:39.416Z,4.43
2022-10-11T14:59:07.783Z,5.35
2022-10-11T15:01:35.826Z,4.93
2022-10-11T15:04:05.256Z,5.13
2022-10-11T15:06:37.822Z,4.73
2022-10-11T15:09:06.519Z,4.78
2022-10-11T15:11:37.169Z,4.93
2022-10-11T15:14:05.691Z,4.95
2022-10-11T15:16:34.646Z,5.10
2022-10-11T15:19:04.147Z,5.30
2022-10-11T15:21:32.168Z,5.13
2022-10-11T15:24:00.217Z,4.70
2022-10-11T15:26:30.315Z,5.20
2022-10-11T15:28:58.762Z,5.75
2022-10-11T15:31:26.844Z,4.95
2022-10-11T15:33:59.344Z,5.17
2022-10-11T15:36:29.608Z,5.37
2022-10-11T15:38:57.621Z,5.93
2022-10-11T15:41:25.561Z,5.40
2022-10-11T15:43:53.532Z,6.07
2022-10-11T15:46:23.146Z,5.80
2022-10-11T15:48:52.511Z,8.05
2022-10-11T15:51:20.792Z,10.05
2022-10-11T15:53:50.136Z,7.60
2022-10-11T15:56:19.667Z,7.10
2022-10-11T15:58:47.840Z,8.27
2022-10-11T16:01:19.302Z,7.83
2022-10-11T16:03:48.491Z,7.50
2022-10-11T16:06:16.689Z,9.50
2022-10-11T16:08:44.723Z,8.67
2022-10-11T16:11:14.967Z,8.73
2022-10-11T16:13:43.039Z,8.67
2022-10-11T16:16:12.381Z,10.60
2022-10-11T16:18:40.390Z,10.40
2022-10-11T16:21:10.593Z,9.90
2022-10-11T16:23:39.127Z,12.57
2022-10-11T16:26:10.123Z,8.83
2022-10-11T16:28:39.883Z,10.10
2022-10-11T16:31:09.044Z,12.27
2022-10-11T16:33:45.718Z,12.67
2022-10-11T16:36:36.103Z,15.93
2022-10-11T16:39:08.220Z,34.23
2022-10-11T16:41:36.406Z,34.83
2022-10-11T16:44:05.922Z,25.57
2022-10-11T16:46:34.934Z,21.80
2022-10-11T16:49:02.911Z,16.90
2022-10-11T16:51:30.918Z,11.20
2022-10-11T16:53:58.930Z,10.73
2022-10-11T16:56:27.999Z,11.60
2022-10-11T16:58:56.641Z,10.63
2022-10-11T17:01:26.401Z,12.83
2022-10-11T17:03:55.699Z,11.33
2022-10-11T17:06:24.286Z,11.63
2022-10-11T17:08:52.330Z,12.00
2022-10-11T17:11:22.236Z,10.60
2022-10-11T17:13:53.234Z,11.07
2022-10-11T17:16:22.101Z,10.50
2022-10-11T17:18:51.484Z,11.07
2022-10-11T17:21:21.307Z,11.60
2022-10-11T17:23:50.208Z,13.40
2022-10-11T17:26:21.171Z,15.77
2022-10-11T17:28:49.154Z,16.27
2022-10-11T17:31:17.873Z,14.03
2022-10-11T17:33:45.861Z,14.30
2022-10-11T17:36:24.051Z,14.20
2022-10-11T17:38:52.898Z,13.53
2022-10-11T17:41:21.626Z,16.40
2022-10-11T17:43:49.666Z,14.83
2022-10-11T17:46:18.631Z,14.27
2022-10-11T17:48:46.562Z,14.07
2022-10-11T17:51:18.165Z,13.67
2022-10-11T17:53:48.039Z,12.63
2022-10-11T17:56:20.976Z,12.37
2022-10-11T17:58:53.535Z,13.97
2022-10-11T18:01:24.035Z,12.50
2022-10-11T18:03:53.865Z,13.93
2022-10-11T18:06:23.206Z,14.23
2022-10-11T18:08:51.454Z,13.53
2022-10-11T18:11:20.857Z,13.17
2022-10-11T18:13:50.349Z,13.03
2022-10-11T18:16:20.687Z,12.67
2022-10-11T18:18:49.094Z,13.47
2022-10-11T18:21:18.702Z,13.27
2022-10-11T18:23:48.179Z,13.80
2022-10-11T18:26:18.825Z,13.17
2022-10-11T18:28:47.883Z,14.60
2022-10-11T18:31:18.585Z,15.57
2022-10-11T18:33:47.275Z,16.33
2022-10-11T18:36:16.917Z,17.83
2022-10-11T18:38:49.162Z,17.57
2022-10-11T18:41:18.858Z,16.80
2022-10-11T18:43:50.891Z,16.17
2022-10-11T18:46:19.310Z,15.90
2022-10-11T18:48:49.574Z,19.87
2022-10-11T18:51:19.400Z,19.60
2022-10-11T18:53:49.450Z,19.63
2022-10-11T18:56:20.621Z,18.90
2022-10-11T18:58:49.737Z,19.37
2022-10-11T19:01:19.957Z,18.03
2022-10-11T19:03:52.361Z,16.97
2022-10-11T19:06:23.143Z,16.73
2022-10-11T19:08:54.383Z,17.90
2022-10-11T19:11:25.339Z,17.17
2022-10-11T19:13:56.793Z,17.63
2022-10-11T19:16:25.147Z,17.43
2022-10-11T19:18:53.721Z,19.37
2022-10-11T19:21:21.784Z,18.00
2022-10-11T19:23:50.604Z,17.67
2022-10-11T19:26:22.319Z,18.50
2022-10-11T19:28:56.169Z,18.53
2022-10-11T19:31:24.297Z,18.20
2022-10-11T19:33:52.343Z,17.17
2022-10-11T19:36:20.407Z,17.23
2022-10-11T19:38:50.259Z,17.50
2022-10-11T19:41:20.855Z,19.53
2022-10-11T19:43:48.879Z,19.40
2022-10-11T19:46:37.910Z,19.77
2022-10-11T19:49:08.273Z,20.23
2022-10-11T19:51:37.411Z,22.83
2022-10-11T19:54:08.422Z,23.80
2022-10-11T19:56:38.347Z,23.97
2022-10-11T19:59:07.351Z,22.57
2022-10-11T20:01:37.191Z,23.00
2022-10-11T20:04:07.040Z,23.13
2022-10-11T20:06:38.783Z,22.47
2022-10-11T20:09:28.612Z,23.80
2022-10-11T20:11:57.232Z,23.17
2022-10-11T20:14:25.333Z,21.13
2022-10-11T20:16:53.514Z,20.40
2022-10-11T20:19:27.694Z,19.47
2022-10-11T20:21:57.407Z,25.10
2022-10-11T20:24:27.463Z,21.63
2022-10-11T20:26:57.055Z,20.17
2022-10-11T20:29:25.289Z,21.57
2022-10-11T20:31:53.387Z,22.50
2022-10-11T20:34:21.361Z,21.73
2022-10-11T20:36:49.598Z,22.73
2022-10-11T20:39:17.943Z,24.80
2022-10-11T20:41:46.262Z,24.20
2022-10-11T20:44:16.201Z,24.93
2022-10-11T20:46:44.306Z,24.63
2022-10-11T20:49:14.735Z,24.30
2022-10-11T20:51:43.858Z,22.83
2022-10-11T20:54:12.411Z,21.93
2022-10-11T20:56:41.526Z,23.63
2022-10-11T20:59:10.087Z,25.27
2022-10-11T21:01:41.176Z,23.97
2022-10-11T21:04:15.347Z,22.87
2022-10-11T21:06:43.310Z,24.00
2022-10-11T21:09:14.077Z,22.30
2022-10-11T21:11:44.452Z,22.80
2022-10-11T21:14:12.402Z,22.67
2022-10-11T21:16:42.008Z,23.00
2022-10-11T21:19:15.255Z,22.33
2022-10-11T21:21:44.578Z,19.13
2022-10-11T21:24:13.687Z,17.60
2022-10-11T21:26:41.630Z,16.90
2022-10-11T21:29:09.566Z,16.47
2022-10-11T21:31:37.619Z,17.93
2022-10-11T21:34:07.470Z,18.00
2022-10-11T21:36:35.728Z,17.93
2022-10-11T21:39:03.914Z,16.80
2022-10-11T21:41:31.868Z,17.13
2022-10-11T21:43:59.920Z,16.33
2022-10-11T21:47:01.085Z,17.17
2022-10-11T21:49:19.889Z,16.90
2022-10-11T21:51:47.863Z,18.07
2022-10-11T21:54:16.082Z,17.30
2022-10-11T21:56:44.143Z,16.67
2022-10-11T21:59:12.887Z,15.87
2022-10-11T22:01:41.876Z,16.57
2022-10-11T22:04:10.518Z,16.97
2022-10-11T22:06:40.360Z,16.50
2022-10-11T22:09:09.246Z,15.93
2022-10-11T22:11:37.844Z,15.50
2022-10-11T22:14:06.386Z,16.57
2022-10-11T22:16:35.035Z,16.07
2022-10-11T22:19:03.109Z,16.73
2022-10-11T22:21:31.256Z,15.73
2022-10-11T22:24:00.569Z,15.77
2022-10-11T22:26:31.072Z,15.43
2022-10-11T22:28:59.346Z,14.80
2022-10-11T22:31:27.554Z,14.63
2022-10-11T22:33:56.187Z,15.93
2022-10-11T22:36:25.079Z,15.20
2022-10-11T22:38:54.147Z,16.13
2022-10-11T22:41:23.769Z,14.90
2022-10-11T22:43:51.893Z,14.67
2022-10-11T22:46:20.095Z,15.10
2022-10-11T22:48:48.019Z,14.83
2022-10-11T22:51:15.965Z,14.67
2022-10-11T22:53:43.936Z,15.23
2022-10-11T22:56:12.053Z,16.57
2022-10-11T22:58:41.342Z,15.90
2022-10-11T23:01:09.912Z,16.80
2022-10-11T23:03:38.108Z,16.67
2022-10-11T23:06:06.766Z,14.80
2022-10-11T23:08:34.703Z,15.57
2022-10-11T23:11:07.114Z,14.90
2022-10-11T23:13:35.693Z,15.80
2022-10-11T23:16:09.297Z,14.37
2022-10-11T23:18:37.849Z,14.87
2022-10-11T23:21:07.154Z,14.47
2022-10-11T23:23:35.435Z,13.70
2022-10-11T23:26:05.325Z,13.60
2022-10-11T23:28:33.711Z,14.23
2022-10-11T23:31:01.995Z,15.77
2022-10-11T23:33:31.304Z,14.77
2022-10-11T23:35:59.309Z,15.53
2022-10-11T23:38:27.304Z,17.20
2022-10-11T23:40:55.281Z,18.50
2022-10-11T23:43:23.403Z,18.83
2022-10-11T23:45:51.384Z,17.93
2022-10-11T23:48:19.308Z,20.03
2022-10-11T23:50:48.635Z,21.43
2022-10-11T23:53:16.614Z,21.63
2022-10-11T23:55:44.734Z,22.07
2022-10-11T23:58:12.697Z,24.17
